Time,TemperatureF,DewpointF,PressureIn,WindDirection,WindDirectionDegrees,WindSpeedMPH,WindSpeedGustMPH,Humidity,HourlyPrecipIn,Conditions,Clouds,dailyrainin,SoftwareType,DateUTC
2013-11-03 00:01:00,49.1,46.3,29.60,North,0,1.7,-999.0,90,-99.99,,,0.00,Acu-Link.com,2013-11-03 04:01:00,
2013-11-03 00:17:00,49.1,46.3,29.61,NE,45,2.7,-999.0,90,-99.99,,,0.00,Acu-Link.com,2013-11-03 04:17:00,
2013-11-03 00:32:00,49.5,46.1,29.62,WSW,247,0.0,-999.0,88,-99.99,,,0.00,Acu-Link.com,2013-11-03 04:32:00,
2013-11-03 00:47:00,49.5,46.1,29.63,West,270,1.1,-999.0,88,-99.99,,,0.00,Acu-Link.com,2013-11-03 04:47:00,
2013-11-03 01:02:00,49.1,45.7,29.63,ESE,112,0.0,-999.0,88,-99.99,,,0.00,Acu-Link.com,2013-11-03 05:02:00,
2013-11-03 01:17:00,49.3,45.6,29.64,West,270,2.7,-999.0,87,-99.99,,,0.00,Acu-Link.com,2013-11-03 05:17:00,
2013-11-03 01:32:00,48.9,45.2,29.65,West,270,2.2,-999.0,87,-99.99,,,0.00,Acu-Link.com,2013-11-03 05:32:00,
2013-11-03 01:48:00,48.9,45.2,29.65,WNW,292,5.8,-999.0,87,-99.99,,,0.00,Acu-Link.com,2013-11-03 05:48:00,
2013-11-03 01:03:00,48.7,44.7,29.66,NW,315,6.8,-999.0,86,-99.99,,,0.00,Acu-Link.com,2013-11-03 06:03:00,
2013-11-03 01:18:00,48.2,44.2,29.67,WNW,292,4.7,-999.0,86,-99.99,,,0.00,Acu-Link.com,2013-11-03 06:18:00,
2013-11-03 01:33:00,47.7,44.0,29.68,North,0,2.2,-999.0,87,-99.99,,,0.00,Acu-Link.com,2013-11-03 06:33:00,
2013-11-03 01:48:00,46.9,43.2,29.69,WNW,292,4.7,-999.0,87,-99.99,,,0.00,Acu-Link.com,2013-11-03 06:48:00,
2013-11-03 02:04:00,46.6,43.2,29.69,NNE,22,0.0,-999.0,88,-99.99,,,0.00,Acu-Link.com,2013-11-03 07:04:00,
2013-11-03 02:19:00,46.2,42.8,29.69,South,180,2.7,-999.0,88,-99.99,,,0.00,Acu-Link.com,2013-11-03 07:19:00,
2013-11-03 02:34:00,46.0,42.6,29.71,WNW,292,6.3,-999.0,88,-99.99,,,0.00,Acu-Link.com,2013-11-03 07:34:00,
2013-11-03 02:49:00,45.9,41.6,29.71,WSW,247,3.2,-999.0,85,-99.99,,,0.00,Acu-Link.com,2013-11-03 07:49:00,
2013-11-03 03:04:00,45.1,40.9,29.72,West,270,3.2,-999.0,85,-99.99,,,0.00,Acu-Link.com,2013-11-03 08:04:00,
2013-11-03 03:19:00,44.8,40.0,29.73,ESE,112,2.7,-999.0,83,-99.99,,,0.00,Acu-Link.com,2013-11-03 08:19:00,
2013-11-03 03:35:00,44.6,39.8,29.74,ESE,112,2.7,-999.0,83,-99.99,,,0.00,Acu-Link.com,2013-11-03 08:35:00,
2013-11-03 03:50:00,44.4,38.9,29.75,East,90,3.2,-999.0,81,-99.99,,,0.00,Acu-Link.com,2013-11-03 08:50:00,
2013-11-03 04:05:00,44.1,37.7,29.76,West,270,1.7,-999.0,78,-99.99,,,0.00,Acu-Link.com,2013-11-03 09:05:00,
2013-11-03 04:21:00,43.9,37.2,29.77,SE,135,2.7,-999.0,77,-99.99,,,0.00,Acu-Link.com,2013-11-03 09:21:00,
2013-11-03 04:36:00,43.5,37.1,29.78,WNW,292,2.2,-999.0,78,-99.99,,,0.00,Acu-Link.com,2013-11-03 09:36:00,
2013-11-03 04:51:00,43.3,36.6,29.79,SSE,157,1.7,-999.0,77,-99.99,,,0.00,Acu-Link.com,2013-11-03 09:51:00,
2013-11-03 05:06:00,43.3,36.9,29.80,West,270,5.3,-999.0,78,-99.99,,,0.00,Acu-Link.com,2013-11-03 10:06:00,
2013-11-03 05:21:00,43.2,36.8,29.81,West,270,2.7,-999.0,78,-99.99,,,0.00,Acu-Link.com,2013-11-03 10:21:00,
2013-11-03 05:36:00,42.8,36.7,29.82,NNW,337,3.7,-999.0,79,-99.99,,,0.00,Acu-Link.com,2013-11-03 10:36:00,
2013-11-03 05:52:00,42.6,36.9,29.83,WNW,292,3.2,-999.0,80,-99.99,,,0.00,Acu-Link.com,2013-11-03 10:52:00,
2013-11-03 06:07:00,42.3,36.9,29.84,SSW,202,1.7,-999.0,81,-99.99,,,0.00,Acu-Link.com,2013-11-03 11:07:00,
2013-11-03 06:22:00,41.9,36.8,29.85,NNE,22,1.7,-999.0,82,-99.99,,,0.00,Acu-Link.com,2013-11-03 11:22:00,
2013-11-03 06:37:00,41.7,36.9,29.86,West,270,4.2,-999.0,83,-99.99,,,0.00,Acu-Link.com,2013-11-03 11:37:00,
2013-11-03 06:52:00,41.5,36.7,29.87,ENE,67,2.2,-999.0,83,-99.99,,,0.00,Acu-Link.com,2013-11-03 11:52:00,
2013-11-03 07:08:00,41.0,36.5,29.88,ESE,112,1.7,-999.0,84,-99.99,,,0.00,Acu-Link.com,2013-11-03 12:08:00,
2013-11-03 07:23:00,41.0,36.5,29.90,South,180,1.7,-999.0,84,-99.99,,,0.00,Acu-Link.com,2013-11-03 12:23:00,
2013-11-03 07:38:00,40.5,36.6,29.92,WSW,247,1.1,-999.0,86,-99.99,,,0.00,Acu-Link.com,2013-11-03 12:38:00,
2013-11-03 07:53:00,40.1,36.5,29.94,West,270,1.1,-999.0,87,-99.99,,,0.00,Acu-Link.com,2013-11-03 12:53:00,
2013-11-03 08:08:00,40.1,36.5,29.94,West,270,3.2,-999.0,87,-99.99,,,0.00,Acu-Link.com,2013-11-03 13:08:00,
2013-11-03 08:23:00,40.3,36.2,29.95,WSW,247,2.7,-999.0,85,-99.99,,,0.00,Acu-Link.com,2013-11-03 13:23:00,
2013-11-03 08:39:00,40.5,36.1,29.95,WNW,292,6.8,-999.0,84,-99.99,,,0.00,Acu-Link.com,2013-11-03 13:39:00,
2013-11-03 08:54:00,40.5,35.1,29.96,NE,45,1.7,-999.0,81,-99.99,,,0.00,Acu-Link.com,2013-11-03 13:54:00,
2013-11-03 09:09:00,40.8,35.4,29.96,South,180,1.7,-999.0,81,-99.99,,,0.00,Acu-Link.com,2013-11-03 14:09:00,
2013-11-03 09:24:00,40.3,34.9,29.97,NNW,337,5.3,-999.0,81,-99.99,,,0.00,Acu-Link.com,2013-11-03 14:24:00,
2013-11-03 09:39:00,40.5,35.1,29.98,West,270,4.7,-999.0,81,-99.99,,,0.00,Acu-Link.com,2013-11-03 14:39:00,
2013-11-03 09:54:00,40.5,34.5,29.99,North,0,2.2,-999.0,79,-99.99,,,0.00,Acu-Link.com,2013-11-03 14:54:00,
2013-11-03 10:09:00,41.4,34.7,29.99,NNW,337,4.2,-999.0,77,-99.99,,,0.00,Acu-Link.com,2013-11-03 15:09:00,
2013-11-03 10:24:00,41.9,34.9,29.99,NE,45,2.2,-999.0,76,-99.99,,,0.00,Acu-Link.com,2013-11-03 15:24:00,
2013-11-03 10:39:00,42.3,34.6,30.01,SW,225,6.8,-999.0,74,-99.99,,,0.00,Acu-Link.com,2013-11-03 15:39:00,
2013-11-03 10:55:00,43.2,34.8,30.00,ESE,112,3.2,-999.0,72,-99.99,,,0.00,Acu-Link.com,2013-11-03 15:55:00,
2013-11-03 11:10:00,43.2,34.4,30.00,WSW,247,4.2,-999.0,71,-99.99,,,0.00,Acu-Link.com,2013-11-03 16:10:00,
2013-11-03 11:25:00,43.3,34.5,29.99,NW,315,4.2,-999.0,71,-99.99,,,0.00,Acu-Link.com,2013-11-03 16:25:00,
2013-11-03 11:40:00,43.2,34.4,30.00,West,270,2.7,-999.0,71,-99.99,,,0.00,Acu-Link.com,2013-11-03 16:40:00,
2013-11-03 11:55:00,43.3,34.2,30.01,ENE,67,5.3,-999.0,70,-99.99,,,0.00,Acu-Link.com,2013-11-03 16:55:00,
2013-11-03 12:10:00,43.7,34.2,30.00,WNW,292,2.2,-999.0,69,-99.99,,,0.00,Acu-Link.com,2013-11-03 17:10:00,
2013-11-03 12:25:00,44.4,34.5,30.00,SSE,157,1.7,-999.0,68,-99.99,,,0.00,Acu-Link.com,2013-11-03 17:25:00,
2013-11-03 12:40:00,44.8,33.4,30.01,East,90,4.7,-999.0,64,-99.99,,,0.00,Acu-Link.com,2013-11-03 17:40:00,
2013-11-03 12:55:00,45.5,33.6,30.01,WSW,247,1.7,-999.0,63,-99.99,,,0.00,Acu-Link.com,2013-11-03 17:55:00,
2013-11-03 13:11:00,46.9,33.8,30.01,WNW,292,5.3,-999.0,60,-99.99,,,0.00,Acu-Link.com,2013-11-03 18:11:00,
2013-11-03 13:26:00,46.9,32.0,30.00,WNW,292,3.2,-999.0,56,-99.99,,,0.00,Acu-Link.com,2013-11-03 18:26:00,
2013-11-03 13:41:00,47.5,31.2,30.01,NE,45,6.8,-999.0,53,-99.99,,,0.00,Acu-Link.com,2013-11-03 18:41:00,
2013-11-03 13:56:00,48.0,28.7,30.01,NE,45,6.8,-999.0,47,-99.99,,,0.00,Acu-Link.com,2013-11-03 18:56:00,
2013-11-03 14:11:00,47.8,27.0,30.02,NE,45,5.3,-999.0,44,-99.99,,,0.00,Acu-Link.com,2013-11-03 19:11:00,
2013-11-03 14:26:00,47.1,26.9,30.02,West,270,3.7,-999.0,45,-99.99,,,0.00,Acu-Link.com,2013-11-03 19:26:00,
2013-11-03 14:41:00,47.5,26.1,30.03,NNE,22,2.2,-999.0,43,-99.99,,,0.00,Acu-Link.com,2013-11-03 19:41:00,
2013-11-03 14:56:00,47.1,25.8,30.04,West,270,5.3,-999.0,43,-99.99,,,0.00,Acu-Link.com,2013-11-03 19:56:00,
2013-11-03 15:11:00,46.2,20.7,30.04,NE,45,2.2,-999.0,36,-99.99,,,0.00,Acu-Link.com,2013-11-03 20:11:00,
2013-11-03 15:27:00,46.8,20.6,30.06,NE,45,1.7,-999.0,35,-99.99,,,0.00,Acu-Link.com,2013-11-03 20:27:00,
2013-11-03 15:42:00,45.3,19.9,30.06,NNW,337,2.7,-999.0,36,-99.99,,,0.00,Acu-Link.com,2013-11-03 20:42:00,
2013-11-03 15:57:00,44.1,18.9,30.07,NE,45,1.7,-999.0,36,-99.99,,,0.00,Acu-Link.com,2013-11-03 20:57:00,
2013-11-03 16:12:00,42.3,17.3,30.07,WNW,292,1.7,-999.0,36,-99.99,,,0.00,Acu-Link.com,2013-11-03 21:12:00,
2013-11-03 16:27:00,41.2,17.5,30.09,NNW,337,0.0,-999.0,38,-99.99,,,0.00,Acu-Link.com,2013-11-03 21:27:00,
2013-11-03 16:42:00,39.6,17.3,30.09,West,270,0.0,-999.0,40,-99.99,,,0.00,Acu-Link.com,2013-11-03 21:42:00,
2013-11-03 16:57:00,37.6,17.7,30.10,NE,45,0.0,-999.0,44,-99.99,,,0.00,Acu-Link.com,2013-11-03 21:57:00,
2013-11-03 17:12:00,36.7,17.9,30.11,NNW,337,0.0,-999.0,46,-99.99,,,0.00,Acu-Link.com,2013-11-03 22:12:00,
2013-11-03 17:27:00,36.0,18.2,30.12,SSW,202,0.0,-999.0,48,-99.99,,,0.00,Acu-Link.com,2013-11-03 22:27:00,
2013-11-03 17:43:00,36.0,18.2,30.13,NE,45,1.7,-999.0,48,-99.99,,,0.00,Acu-Link.com,2013-11-03 22:43:00,
2013-11-03 17:58:00,35.2,18.4,30.15,ESE,112,4.2,-999.0,50,-99.99,,,0.00,Acu-Link.com,2013-11-03 22:58:00,
2013-11-03 18:13:00,35.1,18.8,30.15,ESE,112,0.0,-999.0,51,-99.99,,,0.00,Acu-Link.com,2013-11-03 23:13:00,
2013-11-03 18:28:00,34.9,18.6,30.16,WSW,247,0.0,-999.0,51,-99.99,,,0.00,Acu-Link.com,2013-11-03 23:28:00,
2013-11-03 18:43:00,35.1,18.8,30.17,NNE,22,1.1,-999.0,51,-99.99,,,0.00,Acu-Link.com,2013-11-03 23:43:00,
2013-11-03 18:58:00,34.9,19.1,30.18,WNW,292,1.1,-999.0,52,-99.99,,,0.00,Acu-Link.com,2013-11-03 23:58:00,
2013-11-03 19:13:00,34.5,19.2,30.19,ESE,112,1.1,-999.0,53,-99.99,,,0.00,Acu-Link.com,2013-11-04 00:13:00,
2013-11-03 19:29:00,34.5,18.7,30.19,SW,225,2.7,-999.0,52,-99.99,,,0.00,Acu-Link.com,2013-11-04 00:29:00,
2013-11-03 19:44:00,35.1,17.9,30.20,NE,45,1.7,-999.0,49,-99.99,,,0.00,Acu-Link.com,2013-11-04 00:44:00,
2013-11-03 19:59:00,34.9,17.2,30.21,West,270,2.7,-999.0,48,-99.99,,,0.00,Acu-Link.com,2013-11-04 00:59:00,
2013-11-03 20:14:00,34.7,16.6,30.22,NE,45,0.0,-999.0,47,-99.99,,,0.00,Acu-Link.com,2013-11-04 01:14:00,
2013-11-03 20:29:00,34.2,16.6,30.23,NW,315,3.2,-999.0,48,-99.99,,,0.00,Acu-Link.com,2013-11-04 01:29:00,
2013-11-03 20:44:00,34.0,16.4,30.24,North,0,1.7,-999.0,48,-99.99,,,0.00,Acu-Link.com,2013-11-04 01:44:00,
2013-11-03 20:59:00,33.4,16.8,30.25,SW,225,1.7,-999.0,50,-99.99,,,0.00,Acu-Link.com,2013-11-04 01:59:00,
2013-11-03 21:14:00,33.4,16.8,30.26,WSW,247,4.7,-999.0,50,-99.99,,,0.00,Acu-Link.com,2013-11-04 02:14:00,
2013-11-03 21:29:00,33.3,17.6,30.27,ENE,67,0.0,-999.0,52,-99.99,,,0.00,Acu-Link.com,2013-11-04 02:29:00,
2013-11-03 21:45:00,32.5,17.3,30.29,WNW,292,3.2,-999.0,53,-99.99,,,0.00,Acu-Link.com,2013-11-04 02:45:00,
2013-11-03 22:00:00,31.5,17.2,30.28,ESE,112,1.7,-999.0,55,-99.99,,,0.00,Acu-Link.com,2013-11-04 03:00:00,
2013-11-03 22:15:00,31.1,17.3,30.29,NNE,22,1.7,-999.0,56,-99.99,,,0.00,Acu-Link.com,2013-11-04 03:15:00,
2013-11-03 22:30:00,31.3,17.4,30.29,WSW,247,1.7,-999.0,56,-99.99,,,0.00,Acu-Link.com,2013-11-04 03:30:00,
2013-11-03 22:45:00,30.7,17.3,30.30,SSE,157,1.7,-999.0,57,-99.99,,,0.00,Acu-Link.com,2013-11-04 03:45:00,
2013-11-03 23:00:00,31.1,17.7,30.30,North,0,0.0,-999.0,57,-99.99,,,0.00,Acu-Link.com,2013-11-04 04:00:00,
2013-11-03 23:15:00,30.6,17.6,30.31,SE,135,2.7,-999.0,58,-99.99,,,0.00,Acu-Link.com,2013-11-04 04:15:00,
2013-11-03 23:30:00,30.2,17.6,30.31,NNW,337,0.0,-999.0,59,-99.99,,,0.00,Acu-Link.com,2013-11-04 04:30:00,
2013-11-03 23:46:00,29.3,17.5,30.32,NE,45,1.1,-999.0,61,-99.99,,,0.00,Acu-Link.com,2013-11-04 04:46:00,